Jackson, Montana
Current Conditions -  °F | °C
As of 11:55 PM on Sunday 23 Nov 2014 (Local Time) from KSMN Reporting Station
Broken Clouds Broken Clouds  
Wind Chill: -1°   Ceiling: 4500
Heat Index: -1°   Visibility: 8mi
Dew Point: -2°   Wind: 0mph
Humidity: 93%   Direction: NA
Pressure: 30.07"   Gusts: NA
Location:  45.37°N, 113.41°W
Report Text: KSMN 240655Z AUTO 00000KT 8SM FEW018 SCT025 BKN045 M01/M02 A3007 RMK AO1
Loading
Personal Weather Stations






























Interactive Weather Map New forecast layout! Learn more

10-Day Weather Forecast

Advertisements
Track Severe Weather on mobile